默认 日期 大小 文件数 浏览量 最新下载 xml
2024 a磁力链接相关资源由用户搜索指令自动获取,结果来源于网络,本站不存储任何资料,亦不承担任何责任,请于24小时内删除,搜索到12003个磁力,显示前4000条数据,用时37ms。
    ... ": 583, "Good.One.A.Show.About.Jokes.2024.720p.WEBRip.x264.AAC ... -[YTS.MX].mp4": 444550880, "Good.One.A ... .Show.About.Jokes.2024.720p.WEBRip.x264.AAC ...
创建时间: 2024-04-18 09:31:39 大小:424.23 MB 文件数量:6 热度:4 最近下载:2025-09-19 01:21:04
    {"Hislop Malcolm-A Guide to the Medieval Castles of England-2024.epub": 121645331, "Hislop Malcolm-A Guide to the Medieval Castles of England-2024.a4.pdf": 76438501}
创建时间: 2024-04-18 11:18:20 大小:188.91 MB 文件数量:2 热度:8 最近下载:2025-03-19 01:59:01
    {"Banerjee A. Ultimate Python Libraries for Data Analysis and Visualization...2024.pdf": 47050716}
创建时间: 2024-04-18 11:29:00 大小:44.87 MB 文件数量:1 热度:7 最近下载:2025-03-26 04:29:02
    {"RU Sound [Anilibria]": {"надписи": {"Date a Live 5 - 01 [WEB-DL 1080p 2024].ru_signs.ass": 3210}, "Date a Live 5 - 01 [WEB-DL 1080p 2024].ru_Anilibria.mka": 33830905}, "Date a Live 5 - 01 [WEB-DL 1080p 2024].mkv": 1448021109}
创建时间: 2024-04-18 11:31:48 大小:1.38 GB 文件数量:3 热度:5 最近下载:2025-02-20 18:02:01
    {"Readme-!!!_Med.txt": 409, "Dugbartey G. Gasotransmitters in Organ Transplantation. A New Era...2024.pdf": 11274939}
创建时间: 2024-04-18 12:34:55 大小:10.75 MB 文件数量:2 热度:12 最近下载:2025-08-05 15:05:03
    ... 566536192, "02. S.W.A.T.S07. 2024. WEB-DLRip.TVShows.avi ... 534292480, "03. S.W.A.T.S07. 2024. WEB-DLRip.TVShows.avi ... , "04. S.W.A.T.S07. 2024. WEB-DLRip.TVShows.avi ... , "05. S.W.A.T.S07. 2024. WEB-DLRip.TVShows.avi ... , "06. S.W.A.T.S07. 2024. WEB-DLRip.TVShows.avi ...
创建时间: 2024-04-18 13:42:40 大小:3.64 GB 文件数量:7 热度:4 最近下载:2025-02-06 08:42:03
    ... 566536192, "02. S.W.A.T.S07. 2024. WEB-DLRip.TVShows.avi ... 534292480, "03. S.W.A.T.S07. 2024. WEB-DLRip.TVShows.avi ... , "04. S.W.A.T.S07. 2024. WEB-DLRip.TVShows.avi ... , "05. S.W.A.T.S07. 2024. WEB-DLRip.TVShows.avi ... , "06. S.W.A.T.S07. 2024. WEB-DLRip.TVShows.avi ...
创建时间: 2024-04-18 14:01:42 大小:4.17 GB 文件数量:8 热度:6 最近下载:2025-01-15 17:58:05
    ... Deeparture - Concentrate.mp3": 11020288, "01. A State Of Trance - Intro.mp3 ... . - Arcadia.mp3": 8435712, "35. A State Of Trance - Outro.mp3 ... Kinetic Cinema.mp3": 6592512, "00. A State Of Trance 1167 (SBD ... ) baby967.jpg": 142822, "00. A State Of Trance 1167 (SBD ...
创建时间: 2024-04-18 14:37:30 大小:297.66 MB 文件数量:37 热度:7 最近下载:2025-04-29 02:49:02
    {"Cohen A. The Cyber Predators. Dark Personality..Online Misconduct and Crime 2024.pdf": 27368250}
创建时间: 2024-04-18 15:05:06 大小:26.1 MB 文件数量:1 热度:4 最近下载:2025-09-15 16:49:07
    {"pic (1).jpg": 661974, "pic (2).jpg": 41468, "screens.jpg": 1540320, "Big tits granny Darla loves to get her hairy pussy penetrated by a young man(2024).mp4": 1743434194}
创建时间: 2024-04-18 15:07:10 大小:1.63 GB 文件数量:4 热度:26 最近下载:2025-08-07 01:33:01
    {"最新域名及域名找回.txt": 665, "A.Hero.Without.A.Name.2024.EP30.HD1080P.X264.AAC.Mandarin.CHS.BDYS.mkv": 405438715, "A.Hero.Without.A.Name.2024.EP31.HD1080P.X264.AAC.Mandarin.CHS.BDYS.mkv": 400760899}
创建时间: 2024-04-18 15:25:55 大小:768.85 MB 文件数量:3 热度:5 最近下载:2025-09-12 13:23:06
    ... LelveTV.mkv": 1150311468, "A.Soldier's.Story.S01E02.2024.2160p.IQ.WEB ... .mkv": 1229859779, "A.Soldier's.Story.S01E03.2024.2160p.IQ.WEB ... .mkv": 1343785569, "A.Soldier's.Story.S01E04.2024.2160p.IQ.WEB ... .mkv": 1282620141, "A.Soldier's.Story.S01E05.2024.2160p.IQ.WEB ...
创建时间: 2024-04-18 16:15:31 大小:28.68 GB 文件数量:26 热度:116 最近下载:2025-10-14 12:24:02
    {"A.Model.Murder.2024.720p.WEBRip.x264.RoSub-F1✰.mkv": 834476451, "A.Model.Murder.2024.720p.WEBRip.x264.RoSub-F1✰.nfo": 1815, "A.Model.Murder.2024.720p.WEBRip.x264.RoSub-F1✰.srt": 109898}
创建时间: 2024-04-18 16:38:27 大小:795.93 MB 文件数量:3 热度:3 最近下载:2025-01-12 13:32:03
    ... , "03 - Blackberries.flac": 60417393, "04 - A Fistful Of Keys.flac": 80858291 ... , "08 - Nature is a Mother.flac": 55584913, "02 - Am ...
创建时间: 2024-04-18 16:39:45 大小:568.04 MB 文件数量:11 热度:5 最近下载:2025-09-20 10:59:05
    {"最新域名及域名找回.txt": 665, "A.Good.Woman.Is.Hard.to.Find.2024.EP21.HD1080P.X264.AAC.Mandarin.CHS.BDYS.mkv": 300396592, "A.Good.Woman.Is.Hard.to.Find.2024.EP22.HD1080P.X264.AAC.Mandarin.CHS.BDYS.mkv": 331845868}
创建时间: 2024-04-18 16:49:55 大小:602.95 MB 文件数量:3 热度:6 最近下载:2025-02-09 14:01:39
    {"A.Majomember.2024.720p.HDCAM.MD.HUN-cinema.zsozso.mkv": 3653461791, "A.Majomember.2024.720p.HDCAM.MD.HUN-cinema.zsozso.nfo": 4783, "Sample.A.Majomember.2024.720p.HDCAM.MD.HUN-cinema.zsozso.mkv": 32143902}
创建时间: 2024-04-18 17:41:54 大小:3.43 GB 文件数量:3 热度:2 最近下载:2025-01-15 14:38:04
    {"Code.zip": 236896, "Orbaiceta A. Build a Frontend Web Framework (From Scratch) 2024.pdf": 6908895}
创建时间: 2024-04-18 18:23:40 大小:6.81 MB 文件数量:2 热度:3 最近下载:2025-01-13 10:52:05
    {"最新域名及域名找回.txt": 1160, "A.Good.Woman.Is.Hard.to.Find.2024.EP09.HD1080P.X264.AAC.Mandarin.CHS.BDYS.mkv": 250396574, "A.Good.Woman.Is.Hard.to.Find.2024.EP10.HD1080P.X264.AAC.Mandarin.CHS.BDYS.mkv": 301731779}
创建时间: 2024-04-19 08:48:27 大小:526.55 MB 文件数量:3 热度:3 最近下载:2025-04-25 18:08:01
    ... of Ponchartrain (Live).flac": 39832464, "A Proper St.Patricks Day celtic ...
创建时间: 2024-04-19 08:51:52 大小:397.29 MB 文件数量:15 热度:4 最近下载:2025-01-18 06:20:02
    ... txt": 1238, "Straight Line On A Curved Road.txt": 1284, "John ... Haydock - Straight Line On A Curved Road.cue": 1999, "John ... Haydock - Straight Line On A Curved Road.log": 6818, "John ... Haydock - Straight Line On A Curved Road.flac": 455545136}
创建时间: 2024-04-19 08:55:13 大小:457.01 MB 文件数量:11 热度:10 最近下载:2025-09-21 14:30:02